This is the latest recevied weather packets stored in our database for station/object EA1PVC-10. If no packets are shown the sender has not sent any weather packets the latest 10 day(s).
| Time | Temp. | Humidity | Pressure | Rain* | Wind** | Luminosity | Snow |
|---|---|---|---|---|---|---|---|
| 1777635655 | 21.11° C | 42% | 925.4 hPa | - | - | - | - |
| 1777634755 | 16.11° C | 47% | 919.5 hPa | - | - | - | - |
| 1777632944 | 20° C | 46% | 925.7 hPa | - | - | - | - |
| 1777632044 | 18.33° C | 49% | 925.7 hPa | - | - | - | - |
| 1777631143 | 18.33° C | 51% | 925.7 hPa | - | - | - | - |
| 1777630243 | 10° C | 51% | 914.5 hPa | - | - | - | - |
| 1777628443 | 17.78° C | 57% | 925.6 hPa | - | - | - | - |
| 1777627543 | 17.22° C | 60% | 925.5 hPa | - | - | - | - |
| 1777626643 | 16.11° C | 69% | 925.4 hPa | - | - | - | - |
| 1777625743 | 16.11° C | 72% | 925.4 hPa | - | - | - | - |
| 1777624843 | 15.56° C | 73% | 925.4 hPa | - | - | - | - |
| 1777623031 | 14.44° C | 75% | 925.5 hPa | - | - | - | - |
| 1777622131 | 13.89° C | 76% | 925.4 hPa | - | - | - | - |
| 1777621231 | 13.33° C | 78% | 925.3 hPa | - | - | - | - |
| 1777620331 | 12.78° C | 80% | 925.2 hPa | - | - | - | - |
| 1777619431 | 12.78° C | 80% | 925.2 hPa | - | - | - | - |
| 1777618531 | 12.22° C | 81% | 925.2 hPa | - | - | - | - |
| 1777617631 | 11.67° C | 83% | 925.1 hPa | - | - | - | - |
| 1777616731 | 11.11° C | 83% | 925.1 hPa | - | - | - | - |
| 1777615831 | 10.56° C | 84% | 925 hPa | - | - | - | - |
| 1777614931 | 10° C | 84% | 925 hPa | - | - | - | - |
| 1777614031 | 10° C | 83% | 924.9 hPa | - | - | - | - |
| 1777613134 | 5° C | 83% | 917.7 hPa | - | - | - | - |
| 1777612219 | 10° C | 82% | 924.7 hPa | - | - | - | - |
| 1777611319 | 10.56° C | 81% | 924.7 hPa | - | - | - | - |
* Rain since midnight (hover to see other rain measurements)
** Current wind speed in m/s (hover to see current wind gust speed)